createdAt,value
2017-05-30T00:00:45.902Z,92.43
2017-05-30T00:01:46.605Z,92.71
2017-05-30T00:02:47.275Z,93.29
2017-05-30T00:03:47.949Z,93.29
2017-05-30T00:04:48.618Z,93.29
2017-05-30T00:05:49.294Z,93.38
2017-05-30T00:06:49.969Z,93.1
2017-05-30T00:07:50.644Z,93.1
2017-05-30T00:08:51.304Z,92.91
2017-05-30T00:09:51.958Z,93.58
2017-05-30T00:10:52.668Z,93.68
2017-05-30T00:11:53.330Z,93.38
2017-05-30T00:12:53.993Z,94.06
2017-05-30T00:13:54.653Z,94.15
2017-05-30T00:14:55.313Z,93.87
2017-05-30T00:15:55.985Z,93.96
2017-05-30T00:16:56.642Z,93.87
2017-05-30T00:17:57.312Z,94.06
2017-05-30T00:18:57.985Z,94.35
2017-05-30T00:19:58.666Z,94.11
2017-05-30T00:20:59.343Z,94.21
2017-05-30T00:22:00.020Z,94.45
2017-05-30T00:23:00.694Z,93.82
2017-05-30T00:24:01.361Z,93.68
2017-05-30T00:25:02.028Z,93.87
2017-05-30T00:26:02.694Z,93.96
2017-05-30T00:27:03.376Z,94.15
2017-05-30T00:28:04.030Z,93.96
2017-05-30T00:29:04.704Z,93.96
2017-05-30T00:30:05.377Z,93.68
2017-05-30T00:31:06.063Z,93.96
2017-05-30T00:32:06.724Z,94.06
2017-05-30T00:33:07.425Z,93.68
2017-05-30T00:34:08.095Z,94.25
2017-05-30T00:35:08.783Z,94.15
2017-05-30T00:36:09.457Z,94.06
2017-05-30T00:37:10.152Z,93.96
2017-05-30T00:38:10.820Z,94.06
2017-05-30T00:39:11.495Z,94.06
2017-05-30T00:40:12.230Z,94.06
2017-05-30T00:41:12.914Z,94.11
2017-05-30T00:42:13.574Z,94.83
2017-05-30T00:43:14.243Z,94.83
2017-05-30T00:44:14.952Z,94.88
2017-05-30T00:45:15.616Z,94.64
2017-05-30T00:46:16.287Z,94.92
2017-05-30T00:47:16.951Z,95.07
2017-05-30T00:48:17.616Z,94.68
2017-05-30T00:49:18.283Z,94.98
2017-05-30T00:50:18.960Z,94.92
2017-05-30T00:51:19.632Z,94.98
2017-05-30T00:52:20.306Z,95.55
2017-05-30T00:53:20.987Z,95.36
2017-05-30T00:54:21.649Z,95.36
2017-05-30T00:55:22.328Z,95.75
2017-05-30T00:56:22.986Z,95.31
2017-05-30T00:57:23.654Z,95.55
2017-05-30T00:58:24.340Z,95.36
2017-05-30T00:59:24.994Z,94.98
2017-05-30T01:00:25.688Z,95.55
2017-05-30T01:01:26.361Z,95.94
2017-05-30T01:02:27.030Z,95.55
2017-05-30T01:03:27.697Z,95.65
2017-05-30T01:04:28.375Z,95.65
2017-05-30T01:05:29.047Z,94.98
2017-05-30T01:06:29.735Z,95.45
2017-05-30T01:07:30.405Z,95.65
2017-05-30T01:08:31.083Z,95.45
2017-05-30T01:09:31.754Z,95.75
2017-05-30T01:10:32.417Z,95.75
2017-05-30T01:11:33.089Z,96.03
2017-05-30T01:12:33.769Z,96.32
2017-05-30T01:13:34.431Z,96.51
2017-05-30T01:14:35.090Z,96.22
2017-05-30T01:15:35.773Z,96.03
2017-05-30T01:16:36.446Z,96.42
2017-05-30T01:17:37.115Z,96.61
2017-05-30T01:18:37.793Z,96.13
2017-05-30T01:19:38.461Z,96.22
2017-05-30T01:20:39.143Z,96.13
2017-05-30T01:21:39.804Z,96.61
2017-05-30T01:22:40.467Z,96.61
2017-05-30T01:23:41.127Z,96.61
2017-05-30T01:24:41.804Z,96.7
2017-05-30T01:25:42.523Z,96.7
2017-05-30T01:26:43.201Z,96.99
2017-05-30T01:27:43.872Z,96.7
2017-05-30T01:28:44.535Z,96.9
2017-05-30T01:29:45.214Z,96.7
2017-05-30T01:30:45.913Z,97.19
2017-05-30T01:31:46.572Z,97.38
2017-05-30T01:32:47.235Z,97.57
2017-05-30T01:33:47.903Z,97.38
2017-05-30T01:34:48.572Z,97.47
2017-05-30T01:35:49.238Z,97.28
2017-05-30T01:36:49.909Z,97.38
2017-05-30T01:37:50.598Z,97.38
2017-05-30T01:38:51.272Z,97.57
2017-05-30T01:39:51.933Z,97.57
2017-05-30T01:40:52.616Z,97.76
2017-05-30T01:41:53.289Z,98
2017-05-30T01:42:53.954Z,97.47
2017-05-30T01:43:54.618Z,97.57
2017-05-30T01:44:55.294Z,97.38
2017-05-30T01:45:55.973Z,97.19
2017-05-30T01:46:56.639Z,97.86
2017-05-30T01:47:57.323Z,97.57
2017-05-30T01:48:58.058Z,97.67
2017-05-30T01:49:58.727Z,97.47
2017-05-30T01:50:59.389Z,97.28
2017-05-30T01:52:00.064Z,97.67
2017-05-30T01:53:00.737Z,97.38
2017-05-30T01:54:01.434Z,97.38
2017-05-30T01:55:02.100Z,97.81
2017-05-30T01:56:02.779Z,97.81
2017-05-30T01:57:03.448Z,97.91
2017-05-30T01:58:11.011Z,97.71
2017-05-30T01:59:11.681Z,97.91
2017-05-30T02:00:12.369Z,97.81
2017-05-30T02:01:13.032Z,97.91
2017-05-30T02:02:13.696Z,97.96
2017-05-30T02:03:14.380Z,97.47
2017-05-30T02:04:15.048Z,97.67
2017-05-30T02:05:15.709Z,97.86
2017-05-30T02:06:16.386Z,97.28
2017-05-30T02:07:17.045Z,97.81
2017-05-30T02:08:17.718Z,97.47
2017-05-30T02:09:18.384Z,97.91
2017-05-30T02:10:19.108Z,97.91
2017-05-30T02:11:19.755Z,98
2017-05-30T02:12:20.437Z,97.91
2017-05-30T02:13:21.093Z,98.05
2017-05-30T02:14:21.763Z,97.71
2017-05-30T02:15:22.420Z,97.86
2017-05-30T02:16:23.091Z,97.47
2017-05-30T02:17:23.761Z,97.57
2017-05-30T02:18:24.495Z,97.19
2017-05-30T02:19:25.169Z,97.28
2017-05-30T02:20:25.850Z,97.28
2017-05-30T02:21:26.525Z,97.38
2017-05-30T02:22:27.192Z,97.38
2017-05-30T02:23:27.850Z,97.47
2017-05-30T02:24:28.511Z,97.47
2017-05-30T02:25:29.243Z,97.67
2017-05-30T02:26:29.909Z,97.57
2017-05-30T02:27:30.568Z,97.47
2017-05-30T02:28:31.288Z,97.47
2017-05-30T02:29:31.962Z,97.96
2017-05-30T02:30:32.672Z,98.05
2017-05-30T02:31:33.342Z,97.62
2017-05-30T02:32:34.031Z,98
2017-05-30T02:33:34.672Z,98.14
2017-05-30T02:34:35.321Z,98.05
2017-05-30T02:35:36.041Z,98.86
2017-05-30T02:36:36.678Z,98.29
2017-05-30T02:37:37.338Z,98.68
2017-05-30T02:38:38.015Z,98.48
2017-05-30T02:39:38.688Z,98.48
2017-05-30T02:40:39.355Z,98.96
2017-05-30T02:41:40.020Z,99.06
2017-05-30T02:42:40.706Z,99.06
2017-05-30T02:43:41.365Z,99.25
2017-05-30T02:44:42.026Z,99.15
2017-05-30T02:45:42.688Z,99.73
2017-05-30T02:46:43.352Z,99.54
2017-05-30T02:47:44.016Z,99.54
2017-05-30T02:48:44.687Z,99.44
2017-05-30T02:49:45.363Z,99.54
2017-05-30T02:50:46.018Z,99.54
2017-05-30T02:51:46.709Z,99.25
2017-05-30T02:52:47.391Z,99.25
2017-05-30T02:53:48.071Z,98.96
2017-05-30T02:54:48.740Z,98.96
2017-05-30T02:55:49.397Z,98.96
2017-05-30T02:56:50.087Z,99.06
2017-05-30T02:57:50.753Z,99.06
2017-05-30T02:58:51.418Z,99.06
2017-05-30T02:59:52.084Z,99.35
2017-05-30T03:00:52.754Z,98.48
2017-05-30T03:01:53.436Z,98.44
2017-05-30T03:02:54.103Z,98.68
2017-05-30T03:03:54.776Z,98.48
2017-05-30T03:04:55.457Z,98.86
2017-05-30T03:05:56.120Z,99.25
2017-05-30T03:06:56.790Z,99.06
2017-05-30T03:07:57.469Z,99.15
2017-05-30T03:08:58.169Z,99.25
2017-05-30T03:09:58.856Z,98.86
2017-05-30T03:10:59.521Z,98.39
2017-05-30T03:12:00.213Z,98.48
2017-05-30T03:13:00.881Z,98.39
2017-05-30T03:14:01.566Z,99.44
2017-05-30T03:15:02.266Z,99.35
2017-05-30T03:16:02.938Z,99.15
2017-05-30T03:17:03.615Z,99.01
2017-05-30T03:18:04.303Z,99.15
2017-05-30T03:19:04.970Z,99.15
2017-05-30T03:20:05.632Z,99.25
2017-05-30T03:21:06.314Z,98.96
2017-05-30T03:22:06.987Z,99.15
2017-05-30T03:23:07.657Z,98.96
2017-05-30T03:24:08.325Z,98.96
2017-05-30T03:25:09.007Z,99.06
2017-05-30T03:26:09.677Z,99.06
2017-05-30T03:27:10.361Z,99.15
2017-05-30T03:28:11.030Z,98.48
2017-05-30T03:29:11.745Z,98.29
2017-05-30T03:30:12.464Z,98.48
2017-05-30T03:31:13.160Z,98.53
2017-05-30T03:32:13.826Z,98.48
2017-05-30T03:33:14.496Z,98.77
2017-05-30T03:34:15.167Z,98.44
2017-05-30T03:35:15.843Z,98.72
2017-05-30T03:36:16.512Z,97.96
2017-05-30T03:37:17.210Z,98.24
2017-05-30T03:38:17.884Z,98.53
2017-05-30T03:39:18.645Z,98.14
2017-05-30T03:40:19.305Z,97.96
2017-05-30T03:41:19.978Z,97.76
2017-05-30T03:42:20.684Z,97.28
2017-05-30T03:43:21.348Z,97.38
2017-05-30T03:44:22.018Z,97.38
2017-05-30T03:45:22.673Z,97.38
2017-05-30T03:46:23.344Z,97.57
2017-05-30T03:47:24.021Z,97.57
2017-05-30T03:48:24.687Z,97.57
2017-05-30T03:49:25.354Z,97.47
2017-05-30T03:50:26.035Z,97.47
2017-05-30T03:51:26.707Z,97.52
2017-05-30T03:52:27.367Z,97.38
2017-05-30T03:53:28.054Z,97.67
2017-05-30T03:54:28.721Z,97.57
2017-05-30T03:55:29.395Z,97.86
2017-05-30T03:56:30.066Z,97.86
2017-05-30T03:57:30.780Z,99.3
2017-05-30T03:58:31.447Z,99.99
2017-05-30T03:59:32.134Z,99.99
2017-05-30T04:00:32.805Z,99.99
2017-05-30T04:01:33.478Z,99.99
2017-05-30T04:02:34.178Z,99.99
2017-05-30T04:03:34.842Z,99.99
2017-05-30T04:04:35.555Z,99.99
2017-05-30T04:05:36.224Z,99.99
2017-05-30T04:06:36.896Z,99.99
2017-05-30T04:07:37.581Z,99.99
2017-05-30T04:08:38.251Z,99.99
2017-05-30T04:09:38.916Z,99.99
2017-05-30T04:10:39.602Z,99.99
2017-05-30T04:11:40.272Z,99.99
2017-05-30T04:12:40.931Z,99.99
2017-05-30T04:13:41.597Z,99.99
2017-05-30T04:14:42.259Z,99.99
2017-05-30T04:15:42.934Z,99.99
2017-05-30T04:16:43.596Z,99.99
2017-05-30T04:17:44.260Z,99.99
2017-05-30T04:18:44.936Z,99.99
2017-05-30T04:19:45.606Z,99.99
2017-05-30T04:20:46.288Z,99.99
2017-05-30T04:21:46.958Z,99.99
2017-05-30T04:22:47.624Z,99.99
2017-05-30T04:23:48.298Z,99.99
2017-05-30T04:24:48.971Z,99.99
2017-05-30T04:25:49.636Z,99.99
2017-05-30T04:26:50.305Z,99.99
2017-05-30T04:27:51.006Z,99.99
2017-05-30T04:28:51.671Z,99.99
2017-05-30T04:29:52.329Z,99.99
2017-05-30T04:30:53.038Z,99.99
2017-05-30T04:31:53.700Z,99.99
2017-05-30T04:32:54.394Z,99.99
2017-05-30T04:33:55.069Z,99.99
2017-05-30T04:34:55.728Z,99.99
2017-05-30T04:35:56.452Z,99.99
2017-05-30T04:36:57.112Z,99.99
2017-05-30T04:37:57.773Z,99.99
2017-05-30T04:38:58.430Z,99.99
2017-05-30T04:39:59.105Z,99.99
2017-05-30T04:40:59.774Z,99.99
2017-05-30T04:42:00.507Z,99.99
2017-05-30T04:43:01.345Z,99.99
2017-05-30T04:44:02.064Z,99.99
2017-05-30T04:45:02.823Z,99.99
2017-05-30T04:46:03.546Z,99.99
2017-05-30T04:47:04.216Z,99.99
2017-05-30T04:48:04.887Z,99.99
2017-05-30T04:49:07.052Z,99.99
2017-05-30T04:50:09.580Z,99.99
2017-05-30T04:51:12.230Z,99.99
2017-05-30T04:52:14.872Z,99.99
2017-05-30T04:53:16.357Z,99.99
2017-05-30T04:54:17.061Z,99.99
2017-05-30T04:55:17.738Z,99.99
2017-05-30T04:56:18.402Z,99.99
2017-05-30T04:57:19.065Z,99.99
2017-05-30T04:58:19.733Z,99.99
2017-05-30T04:59:20.414Z,99.99
2017-05-30T05:00:21.129Z,99.99
2017-05-30T05:01:21.833Z,99.99
2017-05-30T05:02:22.513Z,99.99
2017-05-30T05:03:23.188Z,99.99
2017-05-30T05:04:23.853Z,99.99
2017-05-30T05:05:24.533Z,99.99
2017-05-30T05:06:25.190Z,99.99
2017-05-30T05:07:25.851Z,99.99
2017-05-30T05:08:26.515Z,99.99
2017-05-30T05:09:27.185Z,99.99
2017-05-30T05:10:27.856Z,99.99
2017-05-30T05:11:28.609Z,99.99
2017-05-30T05:12:29.327Z,99.99
2017-05-30T05:13:29.998Z,99.99
2017-05-30T05:14:30.654Z,99.99
2017-05-30T05:15:31.317Z,99.99
2017-05-30T05:16:31.993Z,99.99
2017-05-30T05:17:32.660Z,99.99
2017-05-30T05:18:33.322Z,99.99
2017-05-30T05:19:33.995Z,99.99
2017-05-30T05:20:34.683Z,99.99
2017-05-30T05:21:35.355Z,99.99
2017-05-30T05:22:36.049Z,99.99
2017-05-30T05:23:36.765Z,99.99
2017-05-30T05:24:37.442Z,99.99
2017-05-30T05:25:38.094Z,99.99
2017-05-30T05:26:38.766Z,99.99
2017-05-30T05:27:39.432Z,99.99
2017-05-30T05:28:40.091Z,99.99
2017-05-30T05:29:40.830Z,99.99
2017-05-30T05:30:41.584Z,99.99
2017-05-30T05:31:42.250Z,99.99
2017-05-30T05:32:42.919Z,99.99
2017-05-30T05:33:43.583Z,99.99
2017-05-30T05:34:44.269Z,99.99
2017-05-30T05:35:44.929Z,99.99
2017-05-30T05:36:45.606Z,99.99
2017-05-30T05:37:46.288Z,99.99
2017-05-30T05:38:46.960Z,99.99
2017-05-30T05:39:47.619Z,99.99
2017-05-30T05:40:48.345Z,99.99
2017-05-30T05:41:49.005Z,99.99
2017-05-30T05:42:49.659Z,99.99
2017-05-30T05:43:50.338Z,99.99
2017-05-30T05:44:51.006Z,99.99
2017-05-30T05:45:51.686Z,99.99
2017-05-30T05:46:52.365Z,99.99
2017-05-30T05:47:53.032Z,99.99
2017-05-30T05:48:53.727Z,99.99
2017-05-30T05:49:54.413Z,99.99
2017-05-30T05:50:55.113Z,99.99
2017-05-30T05:51:55.774Z,99.99
2017-05-30T05:52:56.451Z,99.99
2017-05-30T05:53:57.128Z,99.99
2017-05-30T05:54:57.801Z,99.99
2017-05-30T05:55:58.498Z,99.99
2017-05-30T05:56:59.155Z,99.99
2017-05-30T05:57:59.827Z,99.99
2017-05-30T05:59:00.496Z,99.99
2017-05-30T06:00:01.164Z,99.99
2017-05-30T06:01:01.828Z,99.99
2017-05-30T06:02:02.496Z,99.99
2017-05-30T06:03:03.156Z,99.99
2017-05-30T06:04:03.834Z,99.99
2017-05-30T06:05:04.505Z,99.99
2017-05-30T06:06:05.177Z,99.99
2017-05-30T06:07:05.854Z,99.99
2017-05-30T06:08:06.539Z,99.99
2017-05-30T06:09:07.203Z,99.99
2017-05-30T06:10:07.896Z,99.99
2017-05-30T06:11:08.568Z,99.99
2017-05-30T06:12:09.254Z,99.99
2017-05-30T06:13:09.933Z,99.99
2017-05-30T06:14:10.592Z,99.99
2017-05-30T06:15:11.280Z,99.99
2017-05-30T06:16:11.956Z,99.99
2017-05-30T06:17:12.614Z,99.99
2017-05-30T06:18:13.292Z,99.99
2017-05-30T06:19:13.954Z,99.99
2017-05-30T06:20:14.624Z,99.99
2017-05-30T06:21:15.281Z,99.99
2017-05-30T06:22:15.940Z,99.99
2017-05-30T06:23:16.605Z,99.99
2017-05-30T06:24:17.262Z,99.99
2017-05-30T06:25:17.923Z,99.99
2017-05-30T06:26:18.605Z,99.99
2017-05-30T06:27:19.276Z,99.99
2017-05-30T06:28:19.955Z,99.99
2017-05-30T06:29:20.626Z,99.99
2017-05-30T06:30:21.309Z,99.99
2017-05-30T06:31:21.976Z,99.99
2017-05-30T06:32:22.643Z,99.99
2017-05-30T06:33:23.310Z,99.99
2017-05-30T06:34:23.983Z,99.99
2017-05-30T06:35:24.701Z,99.99
2017-05-30T06:36:25.398Z,99.99
2017-05-30T06:37:26.074Z,99.99
2017-05-30T06:38:26.780Z,99.99
2017-05-30T06:39:27.446Z,99.99
2017-05-30T06:40:28.115Z,99.99
2017-05-30T06:41:28.804Z,99.99
2017-05-30T06:42:29.460Z,99.99
2017-05-30T06:43:30.139Z,99.99
2017-05-30T06:44:30.827Z,99.99
2017-05-30T06:45:31.504Z,99.99
2017-05-30T06:46:32.223Z,99.99
2017-05-30T06:47:32.896Z,99.99
2017-05-30T06:48:33.560Z,99.99
2017-05-30T06:49:34.226Z,99.99
2017-05-30T06:50:34.894Z,99.99
2017-05-30T06:51:35.562Z,99.99
2017-05-30T06:52:36.235Z,99.99
2017-05-30T06:53:36.926Z,99.99
2017-05-30T06:54:37.591Z,99.99
2017-05-30T06:55:38.260Z,99.99
2017-05-30T06:56:38.929Z,99.99
2017-05-30T06:57:39.642Z,99.99
2017-05-30T06:58:40.323Z,99.99
2017-05-30T06:59:41.043Z,99.99
2017-05-30T07:00:41.733Z,99.99
2017-05-30T07:01:42.395Z,99.99
2017-05-30T07:02:43.085Z,99.99
2017-05-30T07:03:43.751Z,99.99
2017-05-30T07:04:44.420Z,99.99
2017-05-30T07:05:45.389Z,99.99
2017-05-30T07:06:46.071Z,99.99
2017-05-30T07:07:46.746Z,99.99
2017-05-30T07:08:47.422Z,99.99
2017-05-30T07:09:48.479Z,99.99
2017-05-30T07:10:49.137Z,99.99
2017-05-30T07:11:50.230Z,99.99
2017-05-30T07:12:51.099Z,99.99
2017-05-30T07:13:51.783Z,99.99
2017-05-30T07:14:52.464Z,99.99
2017-05-30T07:15:53.144Z,99.99
2017-05-30T07:16:53.839Z,99.99
2017-05-30T07:17:54.516Z,99.99
2017-05-30T07:18:55.198Z,99.99
2017-05-30T07:19:56.722Z,99.99
2017-05-30T07:20:59.421Z,99.99
2017-05-30T07:22:02.004Z,99.99
2017-05-30T07:23:03.799Z,99.99
2017-05-30T07:24:04.487Z,99.99
2017-05-30T07:25:05.214Z,99.99
2017-05-30T07:26:05.915Z,99.99
2017-05-30T07:27:06.612Z,99.99
2017-05-30T07:28:07.316Z,99.99
2017-05-30T07:29:07.985Z,99.99
2017-05-30T07:30:08.665Z,99.99
2017-05-30T07:31:09.328Z,99.99
2017-05-30T07:32:10.043Z,99.99
2017-05-30T07:33:10.715Z,99.99
2017-05-30T07:34:11.492Z,99.99
2017-05-30T07:35:12.168Z,99.99
2017-05-30T07:36:12.843Z,99.99
2017-05-30T07:37:13.647Z,99.99
2017-05-30T07:38:14.291Z,99.99
2017-05-30T07:39:14.967Z,99.99
2017-05-30T07:40:15.652Z,99.99
2017-05-30T07:41:16.335Z,99.99
2017-05-30T07:42:17.003Z,99.99
2017-05-30T07:43:17.694Z,99.99
2017-05-30T07:44:18.542Z,99.99
2017-05-30T07:45:19.212Z,99.99
2017-05-30T07:46:19.886Z,99.99
2017-05-30T07:47:20.558Z,99.99
2017-05-30T07:48:21.274Z,99.99
2017-05-30T07:49:21.947Z,98.34
2017-05-30T07:50:22.778Z,95.88
2017-05-30T07:51:23.472Z,94.77
2017-05-30T07:52:24.146Z,94.29
2017-05-30T07:53:24.851Z,94.82
2017-05-30T07:54:25.537Z,95.54
2017-05-30T07:55:26.204Z,93.56
2017-05-30T07:56:26.882Z,90.37
2017-05-30T07:57:27.563Z,89.74
2017-05-30T07:58:28.254Z,86.2
2017-05-30T07:59:28.944Z,85.76
2017-05-30T08:00:29.632Z,83.96
2017-05-30T08:01:30.321Z,82.94
2017-05-30T08:02:31.028Z,80.71
2017-05-30T08:03:31.699Z,79.84
2017-05-30T08:04:32.395Z,79.93
2017-05-30T08:05:33.081Z,79.78
2017-05-30T08:06:33.761Z,79.33
2017-05-30T08:07:34.434Z,77.06
2017-05-30T08:08:35.935Z,77.11
2017-05-30T08:09:36.616Z,76.07
2017-05-30T08:10:37.315Z,75.94
2017-05-30T08:11:38.028Z,77.29
2017-05-30T08:12:38.719Z,78.23
2017-05-30T08:13:39.416Z,79.1
2017-05-30T08:14:40.093Z,77.59
2017-05-30T08:15:40.803Z,76.27
2017-05-30T08:16:41.486Z,75.3
2017-05-30T08:17:42.216Z,73.88
2017-05-30T08:18:42.934Z,73.49
2017-05-30T08:19:43.673Z,73
2017-05-30T08:20:44.353Z,72.65
2017-05-30T08:21:45.017Z,72.75
2017-05-30T08:22:45.697Z,72.55
2017-05-30T08:23:46.415Z,71.97
2017-05-30T08:24:47.097Z,72.17
2017-05-30T08:25:47.793Z,71.78
2017-05-30T08:26:48.495Z,71.91
2017-05-30T08:27:49.188Z,72.78
2017-05-30T08:28:49.880Z,72.59
2017-05-30T08:29:50.566Z,71.03
2017-05-30T08:30:51.237Z,72.39
2017-05-30T08:31:51.948Z,71.42
2017-05-30T08:32:52.648Z,72.01
2017-05-30T08:33:53.343Z,71.1
2017-05-30T08:34:54.032Z,72.75
2017-05-30T08:35:54.725Z,73.43
2017-05-30T08:36:55.410Z,73.52
2017-05-30T08:37:56.096Z,73.43
2017-05-30T08:38:56.792Z,74.11
2017-05-30T08:39:57.460Z,74.27
2017-05-30T08:40:58.159Z,74.65
2017-05-30T08:41:58.884Z,75.04
2017-05-30T08:42:59.527Z,75.88
2017-05-30T08:44:00.206Z,76.31
2017-05-30T08:45:00.899Z,74.85
2017-05-30T08:46:01.608Z,75.04
2017-05-30T08:47:02.310Z,75.04
2017-05-30T08:48:03.027Z,75.72
2017-05-30T08:49:03.695Z,77.39
2017-05-30T08:50:04.370Z,79.2
2017-05-30T08:51:05.043Z,80.32
2017-05-30T08:52:05.731Z,81.1
2017-05-30T08:53:06.414Z,82.03
2017-05-30T08:54:07.100Z,82.51
2017-05-30T08:55:07.798Z,82.32
2017-05-30T08:56:08.534Z,82.45
2017-05-30T08:57:09.202Z,82.17
2017-05-30T08:58:09.892Z,81.97
2017-05-30T08:59:10.580Z,82.07
2017-05-30T09:00:11.256Z,82.35
2017-05-30T09:01:11.976Z,81.58
2017-05-30T09:02:12.643Z,82.07
2017-05-30T09:03:13.330Z,81.87
2017-05-30T09:04:14.045Z,81.48
2017-05-30T09:05:14.737Z,80.62
2017-05-30T09:06:15.424Z,80.26
2017-05-30T09:07:16.108Z,79.3
2017-05-30T09:08:16.865Z,79.24
2017-05-30T09:09:17.551Z,80.4
2017-05-30T09:10:18.235Z,79.72
2017-05-30T09:11:18.929Z,79.63
2017-05-30T09:12:19.619Z,79.18
2017-05-30T09:13:20.299Z,78.99
2017-05-30T09:14:20.991Z,77.24
2017-05-30T09:15:21.692Z,75.78
2017-05-30T09:16:22.378Z,75.72
2017-05-30T09:17:23.051Z,76.79
2017-05-30T09:18:23.777Z,76.89
2017-05-30T09:19:24.422Z,74.6
2017-05-30T09:20:25.126Z,74.56
2017-05-30T09:21:25.792Z,75.85
2017-05-30T09:22:26.468Z,75.08
2017-05-30T09:23:27.145Z,75.68
2017-05-30T09:24:27.827Z,76.27
2017-05-30T09:25:28.507Z,77.39
2017-05-30T09:26:29.189Z,78.66
2017-05-30T09:27:29.879Z,77.11
2017-05-30T09:28:30.587Z,78.36
2017-05-30T09:29:31.265Z,77.49
2017-05-30T09:30:31.953Z,77.59
2017-05-30T09:31:32.627Z,76.91
2017-05-30T09:32:33.310Z,77.14
2017-05-30T09:33:34.002Z,75.59
2017-05-30T09:34:34.690Z,75.34
2017-05-30T09:35:35.378Z,74.95
2017-05-30T09:36:36.067Z,75.68
2017-05-30T09:37:36.759Z,75.2
2017-05-30T09:38:37.461Z,75.16
2017-05-30T09:39:38.119Z,76.32
2017-05-30T09:40:38.822Z,77.29
2017-05-30T09:41:39.502Z,76.72
2017-05-30T09:42:40.178Z,77.29
2017-05-30T09:43:40.881Z,77.14
2017-05-30T09:44:41.564Z,77.62
2017-05-30T09:45:42.236Z,76.37
2017-05-30T09:46:42.915Z,75.68
2017-05-30T09:47:43.595Z,75.55
2017-05-30T09:48:44.273Z,75.26
2017-05-30T09:49:44.939Z,75.23
2017-05-30T09:50:45.611Z,75.13
2017-05-30T09:51:46.309Z,74.58
2017-05-30T09:52:47.011Z,75.32
2017-05-30T09:53:47.702Z,76.29
2017-05-30T09:54:48.387Z,76.93
2017-05-30T09:55:49.069Z,77.16
2017-05-30T09:56:49.751Z,76.97
2017-05-30T09:57:50.438Z,77.55
2017-05-30T09:58:51.110Z,77.84
2017-05-30T09:59:51.823Z,78.71
2017-05-30T10:00:52.516Z,77.26
2017-05-30T10:01:53.201Z,77.94
2017-05-30T10:02:53.887Z,78.03
2017-05-30T10:03:54.564Z,77.84
2017-05-30T10:04:55.246Z,78.03
2017-05-30T10:05:55.914Z,78.13
2017-05-30T10:06:56.589Z,77.94
2017-05-30T10:07:57.320Z,77.26
2017-05-30T10:08:57.999Z,77.16
2017-05-30T10:09:58.685Z,76.78
2017-05-30T10:10:59.378Z,76
2017-05-30T10:12:00.058Z,75.32
2017-05-30T10:13:00.746Z,74.64
2017-05-30T10:14:01.416Z,74.16
2017-05-30T10:15:02.087Z,75.32
2017-05-30T10:16:02.807Z,74.74
2017-05-30T10:17:03.470Z,75.09
2017-05-30T10:18:04.149Z,75.38
2017-05-30T10:19:04.822Z,76.25
2017-05-30T10:20:05.521Z,76.45
2017-05-30T10:21:06.207Z,76.74
2017-05-30T10:22:06.894Z,77.12
2017-05-30T10:23:07.582Z,77.37
2017-05-30T10:24:08.262Z,77.28
2017-05-30T10:25:08.949Z,77.76
2017-05-30T10:26:09.654Z,77.09
2017-05-30T10:27:10.334Z,76.83
2017-05-30T10:28:11.014Z,76.25
2017-05-30T10:29:11.680Z,75.38
2017-05-30T10:30:12.405Z,74.16
2017-05-30T10:31:13.096Z,73.67
2017-05-30T10:32:13.816Z,73.48
2017-05-30T10:33:14.527Z,73.48
2017-05-30T10:34:15.261Z,74.22
2017-05-30T10:35:16.023Z,73.93
2017-05-30T10:36:16.716Z,74.74
2017-05-30T10:37:17.398Z,74.64
2017-05-30T10:38:18.105Z,75.32
2017-05-30T10:39:18.770Z,74.93
2017-05-30T10:40:19.461Z,73.38
2017-05-30T10:41:20.161Z,73.54
2017-05-30T10:42:20.884Z,73.86
2017-05-30T10:43:21.566Z,74.45
2017-05-30T10:44:22.241Z,74.9
2017-05-30T10:45:22.923Z,75.19
2017-05-30T10:46:23.620Z,74.9
2017-05-30T10:47:24.307Z,74.6
2017-05-30T10:48:24.996Z,74.9
2017-05-30T10:49:25.684Z,74.16
2017-05-30T10:50:26.380Z,73.67
2017-05-30T10:51:27.070Z,72.89
2017-05-30T10:52:27.772Z,72.99
2017-05-30T10:53:28.465Z,73.48
2017-05-30T10:54:29.166Z,73.38
2017-05-30T10:55:29.865Z,72.02
2017-05-30T10:56:30.559Z,71.93
2017-05-30T10:57:31.317Z,72.31
2017-05-30T10:58:32.021Z,73.09
2017-05-30T10:59:32.768Z,72.02
2017-05-30T11:00:33.416Z,72.22
2017-05-30T11:01:34.103Z,71.44
2017-05-30T11:02:34.822Z,70.96
2017-05-30T11:03:35.534Z,71.44
2017-05-30T11:04:36.167Z,71.64
2017-05-30T11:05:36.858Z,71.73
2017-05-30T11:06:37.557Z,71.64
2017-05-30T11:07:38.241Z,71.34
2017-05-30T11:08:38.922Z,71.54
2017-05-30T11:09:39.607Z,72.31
2017-05-30T11:10:40.274Z,73.19
2017-05-30T11:11:41.109Z,73.19
2017-05-30T11:12:41.957Z,72.67
2017-05-30T11:13:42.667Z,72.18
2017-05-30T11:14:43.503Z,74.32
2017-05-30T11:15:44.259Z,73.54
2017-05-30T11:16:44.940Z,73.35
2017-05-30T11:17:45.691Z,74.38
2017-05-30T11:18:46.431Z,73.6
2017-05-30T11:19:47.197Z,75.15
2017-05-30T11:20:47.904Z,75.15
2017-05-30T11:21:48.578Z,75.24
2017-05-30T11:22:49.286Z,76.6
2017-05-30T11:23:49.997Z,78.34
2017-05-30T11:24:50.681Z,76.89
2017-05-30T11:25:51.391Z,75.73
2017-05-30T11:26:52.118Z,77.28
2017-05-30T11:27:52.824Z,74.86
2017-05-30T11:28:53.509Z,77.37
2017-05-30T11:29:54.185Z,76.6
2017-05-30T11:30:54.872Z,77.53
2017-05-30T11:31:55.612Z,77.34
2017-05-30T11:32:56.301Z,78.02
2017-05-30T11:33:56.965Z,78.69
2017-05-30T11:34:57.669Z,80.34
2017-05-30T11:35:58.355Z,78.69
2017-05-30T11:36:59.040Z,78.99
2017-05-30T11:37:59.761Z,79.37
2017-05-30T11:39:00.471Z,79.76
2017-05-30T11:40:01.158Z,76.56
2017-05-30T11:41:01.831Z,74.63
2017-05-30T11:42:02.514Z,77.14
2017-05-30T11:43:03.211Z,76.86
2017-05-30T11:44:03.913Z,76.28
2017-05-30T11:45:04.603Z,78.11
2017-05-30T11:46:05.278Z,77.34
2017-05-30T11:47:05.958Z,78.25
2017-05-30T11:48:06.641Z,78.02
2017-05-30T11:49:07.327Z,77.53
2017-05-30T11:50:08.063Z,78.25
2017-05-30T11:51:08.778Z,77.96
2017-05-30T11:52:09.465Z,76.86
2017-05-30T11:53:10.166Z,76.89
2017-05-30T11:54:10.887Z,76.12
2017-05-30T11:55:11.570Z,76.02
2017-05-30T11:56:12.332Z,74.57
2017-05-30T11:57:13.073Z,76.76
2017-05-30T11:58:13.984Z,76.18
2017-05-30T11:59:14.839Z,74.47
2017-05-30T12:00:15.509Z,73.79
2017-05-30T12:01:16.189Z,74.66
2017-05-30T12:02:16.870Z,74.34
2017-05-30T12:03:17.557Z,74.47
2017-05-30T12:04:18.253Z,74.53
2017-05-30T12:05:18.939Z,74.47
2017-05-30T12:06:19.636Z,75.92
2017-05-30T12:07:20.340Z,74.57
2017-05-30T12:08:21.017Z,76.18
2017-05-30T12:09:21.722Z,75.6
2017-05-30T12:10:22.398Z,75.89
2017-05-30T12:11:23.086Z,76.66
2017-05-30T12:12:23.785Z,75.02
2017-05-30T12:13:24.541Z,75.98
2017-05-30T12:14:25.230Z,75.79
2017-05-30T12:15:25.914Z,75.02
2017-05-30T12:16:26.603Z,76.18
2017-05-30T12:17:27.312Z,78.69
2017-05-30T12:18:27.992Z,76.46
2017-05-30T12:19:28.740Z,78.11
2017-05-30T12:20:29.524Z,76.76
2017-05-30T12:21:30.210Z,76.28
2017-05-30T12:22:30.895Z,76.95
2017-05-30T12:23:31.577Z,76.82
2017-05-30T12:24:32.244Z,75.5
2017-05-30T12:25:32.961Z,77.01
2017-05-30T12:26:33.648Z,78.75
2017-05-30T12:27:34.317Z,78.85
2017-05-30T12:28:35.004Z,78.94
2017-05-30T12:29:35.699Z,78.17
2017-05-30T12:30:36.377Z,77.5
2017-05-30T12:31:37.065Z,78.02
2017-05-30T12:32:37.891Z,78.89
2017-05-30T12:33:38.570Z,77.63
2017-05-30T12:34:39.259Z,77.92
2017-05-30T12:35:39.940Z,78.5
2017-05-30T12:36:40.611Z,78.79
2017-05-30T12:37:41.290Z,77.24
2017-05-30T12:38:42.007Z,78.11
2017-05-30T12:39:42.688Z,78.21
2017-05-30T12:40:43.371Z,77.82
2017-05-30T12:41:44.052Z,75.79
2017-05-30T12:42:44.767Z,78.31
2017-05-30T12:43:45.526Z,77.05
2017-05-30T12:44:46.205Z,77.82
2017-05-30T12:45:46.900Z,78.5
2017-05-30T12:46:47.595Z,76.89
2017-05-30T12:47:48.297Z,78.34
2017-05-30T12:48:48.992Z,78.5
2017-05-30T12:49:49.676Z,78.54
2017-05-30T12:50:50.367Z,77.19
2017-05-30T12:51:51.070Z,78.74
2017-05-30T12:52:51.756Z,75.89
2017-05-30T12:53:52.448Z,78.83
2017-05-30T12:54:53.144Z,78.74
2017-05-30T12:55:53.836Z,78.02
2017-05-30T12:56:54.520Z,77.92
2017-05-30T12:57:55.220Z,76.18
2017-05-30T12:58:55.922Z,77.44
2017-05-30T12:59:56.603Z,76.56
2017-05-30T13:00:57.323Z,77.19
2017-05-30T13:01:57.993Z,76.89
2017-05-30T13:02:58.706Z,76.6
2017-05-30T13:03:59.386Z,77.37